• Join FlightAware (Why Join?)
  • Login
  • US Flag 
04:49PM EDT


 

Airport Tracker/Info


-or-


 

Live Flight TrackerFlight Track Log ✈ DAL813 ✈ 01-Feb-2014 ✈ KATL - KPHL

Flight Track Log - Related Links

Times and Time Zones

All times are in EST time to prevent confusion due to time zone crossing. See the DAL813 flight status page for this flight to view local times or setup timezone preferences in your user account.

Time Position Orientation Groundspeed Altitude Reporting Facility
EST Latitude Longitude Course Direction KTS MPH feet Rate Location/Type
09:57PM 33.6333 -84.4000 53° Northeast 182 209 2,000  Level Atlanta TRACON
10:00PM 33.7687 -83.9468 54° Northeast  Level FlightAware Approximate
10:00PM 33.6314 -84.2208 91° East 286 329 7,300  Level Atlanta Center
10:01PM 33.8504 -83.8106 54° Northeast  Level FlightAware Approximate
10:01PM 33.6336 -84.1186 88° East 303 349 10,500  Level Atlanta Center
10:02PM 33.9390 -83.6809 53° Northeast  Level FlightAware Approximate
10:02PM 33.6942 -84.0239 52° Northeast 335 386 11,700  Level Atlanta Center
10:03PM 34.0228 -83.5464 53° Northeast  Level FlightAware Approximate
10:03PM 33.7711 -83.9214 48° Northeast 382 440 13,800  Level Atlanta Center
10:04PM 33.8608 -83.8061 47° Northeast 408 470 16,100 2,160 Climbing Atlanta Center
10:05PM 33.9419 -83.6933 49° Northeast 427 491 18,200 1,920 Climbing Atlanta Center
10:06PM 34.0208 -83.5700 52° Northeast 447 514 20,000 1,740 Climbing Atlanta Center
10:07PM 34.1017 -83.4392 53° Northeast 470 541 21,700 1,680 Climbing Atlanta Center
10:08PM 34.1844 -83.3106 52° Northeast 488 562 23,400 1,620 Climbing Atlanta Center
10:09PM 34.2692 -83.1742 53° Northeast 493 567 25,000 1,440 Climbing Atlanta Center
10:10PM 34.3536 -83.0322 54° Northeast 504 580 26,300 1,440 Climbing Atlanta Center
10:11PM 34.4422 -82.8953 52° Northeast 519 597 27,900 1,560 Climbing Atlanta Center
10:12PM 34.5306 -82.7528 53° Northeast 519 597 29,500 1,500 Climbing Atlanta Center
10:13PM 34.6167 -82.6153 53° Northeast 519 597 31,000 720 Climbing Atlanta Center
10:14PM 34.7006 -82.4775 53° Northeast 513 590 31,000  Level Atlanta Center
10:15PM 34.7864 -82.3367 53° Northeast 513 590 31,000  Level Atlanta Center
10:16PM 34.8719 -82.1958 53° Northeast 513 590 31,000  Level Atlanta Center
10:17PM 34.9514 -82.0722 52° Northeast 513 590 31,000  Level Atlanta Center
10:18PM 35.0408 -81.9358 51° Northeast 508 585 31,000  Level Atlanta Center
10:19PM 35.1303 -81.7964 52° Northeast 514 592 31,000  Level Atlanta Center
10:20PM 35.2194 -81.6567 52° Northeast 514 592 31,000  Level Atlanta Center
10:21PM 35.3064 -81.5167 53° Northeast 514 592 31,000  Level Atlanta Center
10:22PM 35.3931 -81.3789 52° Northeast 514 592 31,000  Level Atlanta Center
10:23PM 35.4878 -81.2231 53° Northeast 520 598 31,000  Level Atlanta Center
10:24PM 35.5783 -81.0769 53° Northeast 526 605 31,000  Level Atlanta Center
10:25PM 35.6667 -80.9408 51° Northeast 520 598 31,000  Level Atlanta Center
10:26PM 35.7547 -80.8017 52° Northeast 515 593 31,000  Level Atlanta Center
10:27PM 35.8428 -80.6625 52° Northeast 515 593 31,000  Level Atlanta Center
10:29PM 36.0386 -80.3467 52° Northeast 522 601 31,000  Level Washington Center
10:30PM 36.1233 -80.2053 53° Northeast 517 595 31,000  Level Washington Center
10:31PM 36.2122 -80.0689 51° Northeast 512 589 31,000  Level Washington Center
10:32PM 36.2986 -79.9269 53° Northeast 512 589 31,000  Level Washington Center
10:33PM 36.3922 -79.7644 54° Northeast 519 597 31,000  Level Washington Center
10:34PM 36.4786 -79.6192 53° Northeast 519 597 31,000  Level Washington Center
10:35PM 36.5647 -79.4761 53° Northeast 519 597 31,000  Level Washington Center
10:36PM 36.6506 -79.3303 54° Northeast 519 597 31,000 -240 Level Washington Center
10:37PM 36.7297 -79.1994 53° Northeast 519 597 30,600 -540 Descending Washington Center
10:38PM 36.8153 -79.0556 53° Northeast 519 597 30,000 -300 Descending Washington Center
10:39PM 36.9008 -78.9114 53° Northeast 519 597 30,000  Level Washington Center
10:40PM 36.9992 -78.7464 53° Northeast 519 597 30,000  Level Washington Center
10:41PM 37.0864 -78.6042 52° Northeast 519 597 30,000  Level Washington Center
10:42PM 37.1875 -78.4778 45° Northeast 519 597 30,000  Level Washington Center
10:43PM 37.2839 -78.3719 41° Northeast 512 589 30,000  Level Washington Center
10:44PM 37.3908 -78.2503 42° Northeast 506 582 30,000  Level Washington Center
10:45PM 37.4914 -78.1358 42° Northeast 501 577 30,000 -600 Level Washington Center
10:46PM 37.5958 -78.0214 41° Northeast 501 577 28,800 -1,020 Descending Washington Center
10:47PM 37.7028 -77.8964 43° Northeast 501 577 28,000 -420 Descending Washington Center
10:48PM 37.8092 -77.7761 42° Northeast 501 577 28,000  Level Washington Center
10:49PM 37.9178 -77.6556 41° Northeast 501 577 28,000  Level Washington Center
10:50PM 38.0119 -77.5158 49° Northeast 506 582 28,000  Level Washington Center
10:51PM 38.0914 -77.3647 56° Northeast 513 590 28,000  Level Washington Center
10:52PM 38.1750 -77.2081 56° Northeast 518 596 28,000  Level Washington Center
10:53PM 38.2581 -77.0514 56° Northeast 529 609 28,000  Level Washington Center
10:54PM 38.3478 -76.8811 56° Northeast 529 609 28,000  Level Washington Center
10:55PM 38.4306 -76.7261 56° Northeast 529 609 28,000 -300 Level Washington Center
10:56PM 38.5111 -76.5708 56° Northeast 529 609 27,400 -1,620 Descending Washington Center
10:57PM 38.5936 -76.4150 56° Northeast 529 609 24,900 -2,640 Descending Washington Center
10:58PM 38.6697 -76.2644 57° Northeast 518 596 22,100 -2,760 Descending Washington Center
10:59PM 38.7494 -76.1186 55° Northeast 508 585 19,400 -2,760 Descending Washington Center
11:00PM 38.8211 -75.9781 57° Northeast 485 558 16,800 -2,220 Descending Washington Center
11:01PM 38.8922 -75.8450 55° Northeast 472 543 14,900 -1,680 Descending Washington Center
11:02PM 38.9903 -75.7464 38° Northeast 432 497 13,500 -1,440 Descending Washington Center
11:03PM 39.0947 -75.6772 27° Northeast 417 480 12,100 -1,020 Descending Washington Center
11:05PM 39.3333 -75.6000 14° North 330 380 10,100 -600 Descending Philadelphia TRACON
11:06PM 39.4000 -75.5167 44° Northeast 341 392 10,100  Level Philadelphia TRACON
11:07PM 39.4333 -75.4000 70° East 340 391 10,100  Level Philadelphia TRACON
11:08PM 39.5000 -75.3167 44° Northeast 343 395 10,100  Level Philadelphia TRACON
11:09PM 39.5667 -75.2333 44° Northeast 345 397 10,100 -600 Level Philadelphia TRACON
11:10PM 39.6333 -75.1500 44° Northeast 338 389 9,000 -1,200 Descending Philadelphia TRACON
11:11PM 39.7000 -75.0833 38° Northeast 316 364 7,700 -1,620 Descending Philadelphia TRACON
11:12PM 39.7667 -75.0000 44° Northeast 298 343 5,800 -1,680 Descending Philadelphia TRACON
11:13PM 39.8333 -74.9667 21° North 236 272 4,400 -1,500 Descending Philadelphia TRACON
11:14PM 39.8833 -75.0000 333° Northwest 195 224 2,900 -1,140 Descending Philadelphia TRACON
11:15PM 39.9000 -75.0500 293° West 175 201 2,200 -540 Descending Philadelphia TRACON
11:16PM 39.9000 -75.1167 270° West 138 159 1,900 -540 Descending Philadelphia TRACON
11:17PM 39.8833 -75.1500 237° Southwest 127 146 1,200 -720 Descending Philadelphia TRACON
11:18PM 39.8833 -75.2000 270° West 135 155 500 -720 Descending Philadelphia TRACON